Wetterdaten: Woche 02.08.10 - 08.08.10 (KW31)
Datum Zeit Temperatur Luftfeuchte Luftdruck Niederschlag Wind Richtung Sonnenschein Solar Taupunkt Windchill Windben
02.08.2010 00:00 18.6 C 95 % 1015.4 hPa 0.0 l/m 0.3 km/h (0 Bft) O-SO 0.00 h 0 W/m 17.8 C 18.6 C 0.8 km/h (0 Bft)
02.08.2010 01:00 18.2 C 96 % 1015.2 hPa 0.0 l/m 0.1 km/h (0 Bft) O 0.00 h 0 W/m 17.6 C 18.2 C 0.4 km/h (0 Bft)
02.08.2010 02:00 17.8 C 97 % 1014.9 hPa 0.0 l/m 0.2 km/h (0 Bft) O 0.00 h 0 W/m 17.3 C 17.8 C 0.7 km/h (0 Bft)
02.08.2010 03:00 17.8 C 97 % 1014.8 hPa 0.0 l/m 0.0 km/h (0 Bft) O 0.00 h 0 W/m 17.3 C 17.8 C 0.2 km/h (0 Bft)
02.08.2010 04:00 17.4 C 98 % 1014.4 hPa 0.0 l/m 0.1 km/h (0 Bft) O 0.00 h 0 W/m 17.1 C 17.4 C 0.3 km/h (0 Bft)
02.08.2010 05:00 17.4 C 98 % 1014.8 hPa 0.0 l/m 0.8 km/h (0 Bft) O 0.00 h 0 W/m 17.0 C 17.4 C 1.7 km/h (1 Bft)
02.08.2010 06:00 17.3 C 98 % 1015.0 hPa 0.0 l/m 0.1 km/h (0 Bft) O-NO 0.00 h 10 W/m 17.0 C 17.3 C 0.5 km/h (0 Bft)
02.08.2010 07:00 17.4 C 99 % 1014.8 hPa 0.0 l/m 0.1 km/h (0 Bft) O-NO 0.00 h 27 W/m 17.1 C 17.4 C 0.6 km/h (0 Bft)
02.08.2010 08:00 17.9 C 99 % 1015.0 hPa 0.0 l/m 0.1 km/h (0 Bft) O-NO 0.00 h 90 W/m 17.8 C 17.9 C 0.3 km/h (0 Bft)
02.08.2010 09:00 19.1 C 96 % 1015.0 hPa 0.0 l/m 0.3 km/h (0 Bft) O-NO 0.27 h 271 W/m 18.5 C 19.1 C 1.3 km/h (1 Bft)
02.08.2010 10:00 21.3 C 89 % 1014.7 hPa 0.2 l/m 0.9 km/h (0 Bft) W 0.55 h 434 W/m 19.3 C 21.3 C 2.5 km/h (1 Bft)
02.08.2010 11:00 21.6 C 84 % 1014.7 hPa 0.0 l/m 4.3 km/h (1 Bft) W 0.28 h 298 W/m 18.7 C 21.6 C 7.4 km/h (2 Bft)
02.08.2010 12:00 19.9 C 90 % 1014.8 hPa 0.6 l/m 2.9 km/h (1 Bft) W 0.00 h 180 W/m 18.3 C 19.9 C 5.9 km/h (2 Bft)
02.08.2010 13:00 20.0 C 95 % 1014.4 hPa 0.2 l/m 0.9 km/h (0 Bft) W 0.00 h 267 W/m 19.1 C 20.0 C 2.6 km/h (1 Bft)
02.08.2010 14:00 19.6 C 93 % 1014.5 hPa 0.0 l/m 3.5 km/h (1 Bft) W-NW 0.00 h 217 W/m 18.5 C 19.6 C 5.8 km/h (2 Bft)
02.08.2010 15:00 18.7 C 94 % 1014.8 hPa 2.0 l/m 2.3 km/h (1 Bft) W 0.00 h 49 W/m 17.8 C 18.7 C 4.3 km/h (1 Bft)
02.08.2010 16:00 18.8 C 97 % 1014.7 hPa 0.6 l/m 0.9 km/h (0 Bft) W-NW 0.00 h 163 W/m 18.3 C 18.8 C 2.5 km/h (1 Bft)
02.08.2010 17:00 18.9 C 96 % 1014.7 hPa 0.2 l/m 0.3 km/h (0 Bft) S-SO 0.00 h 119 W/m 18.3 C 18.9 C 1.7 km/h (1 Bft)
02.08.2010 18:00 18.5 C 96 % 1014.6 hPa 0.4 l/m 2.4 km/h (1 Bft) S-SO 0.00 h 84 W/m 17.9 C 18.5 C 5.6 km/h (1 Bft)
02.08.2010 19:00 18.3 C 95 % 1014.6 hPa 0.0 l/m 2.1 km/h (1 Bft) S-SO 0.00 h 32 W/m 17.5 C 18.3 C 5.2 km/h (1 Bft)
02.08.2010 20:00 17.9 C 97 % 1014.8 hPa 1.6 l/m 0.9 km/h (0 Bft) W 0.00 h 7 W/m 17.5 C 17.9 C 2.2 km/h (1 Bft)
02.08.2010 21:00 17.4 C 98 % 1014.9 hPa 1.6 l/m 0.6 km/h (0 Bft) S-SW 0.00 h 0 W/m 17.0 C 17.4 C 1.4 km/h (1 Bft)
02.08.2010 22:00 17.3 C 98 % 1014.6 hPa 0.2 l/m 0.5 km/h (0 Bft) S-SO 0.00 h 0 W/m 16.9 C 17.3 C 1.6 km/h (1 Bft)
02.08.2010 23:00 17.3 C 98 % 1014.7 hPa 0.0 l/m 0.2 km/h (0 Bft) S-SW 0.00 h 0 W/m 17.0 C 17.3 C 1.2 km/h (1 Bft)
03.08.2010 00:00 17.5 C 98 % 1014.6 hPa 0.0 l/m 0.0 km/h (0 Bft) S-SW 0.00 h 0 W/m 17.2 C 17.5 C 0.7 km/h (0 Bft)
03.08.2010 01:00 17.3 C 98 % 1014.5 hPa 0.0 l/m 0.2 km/h (0 Bft) S-SO 0.00 h 0 W/m 17.1 C 17.3 C 0.7 km/h (0 Bft)
03.08.2010 02:00 17.0 C 99 % 1014.2 hPa 0.0 l/m 0.0 km/h (0 Bft) N 0.00 h 0 W/m 16.8 C 17.0 C 0.5 km/h (0 Bft)
03.08.2010 03:00 16.6 C 99 % 1014.3 hPa 0.0 l/m 2.5 km/h (1 Bft) W 0.00 h 0 W/m 16.4 C 16.6 C 5.4 km/h (1 Bft)
03.08.2010 04:00 16.0 C 98 % 1014.1 hPa 0.0 l/m 6.0 km/h (2 Bft) W 0.00 h 0 W/m 15.7 C 16.0 C 10.7 km/h (2 Bft)
03.08.2010 05:00 15.4 C 97 % 1014.1 hPa 0.2 l/m 3.6 km/h (1 Bft) W 0.00 h 0 W/m 15.0 C 15.4 C 6.4 km/h (2 Bft)
03.08.2010 06:00 15.0 C 95 % 1014.3 hPa 0.0 l/m 2.8 km/h (1 Bft) W-SW 0.00 h 10 W/m 14.3 C 15.0 C 5.8 km/h (2 Bft)
03.08.2010 07:00 15.3 C 93 % 1014.8 hPa 0.0 l/m 2.8 km/h (1 Bft) S-SO 0.00 h 51 W/m 14.1 C 15.3 C 6.0 km/h (2 Bft)
03.08.2010 08:00 15.7 C 93 % 1015.4 hPa 0.0 l/m 2.0 km/h (1 Bft) W-SW 0.00 h 95 W/m 14.6 C 15.7 C 5.2 km/h (1 Bft)
03.08.2010 09:00 16.2 C 94 % 1015.8 hPa 0.0 l/m 6.4 km/h (2 Bft) W 0.00 h 220 W/m 15.2 C 16.2 C 10.9 km/h (2 Bft)
03.08.2010 10:00 17.7 C 88 % 1015.7 hPa 0.0 l/m 9.7 km/h (2 Bft) W 0.62 h 500 W/m 15.7 C 17.7 C 15.8 km/h (3 Bft)
03.08.2010 11:00 19.1 C 83 % 1015.3 hPa 0.0 l/m 7.3 km/h (2 Bft) W 0.60 h 637 W/m 16.0 C 19.1 C 12.6 km/h (3 Bft)
03.08.2010 12:00 19.9 C 78 % 1014.8 hPa 0.0 l/m 7.0 km/h (2 Bft) W 0.62 h 613 W/m 16.0 C 19.9 C 11.6 km/h (2 Bft)
03.08.2010 13:00 21.1 C 69 % 1014.3 hPa 0.0 l/m 10.3 km/h (2 Bft) W 0.85 h 705 W/m 15.1 C 21.1 C 16.8 km/h (3 Bft)
03.08.2010 14:00 22.1 C 63 % 1014.4 hPa 0.0 l/m 10.9 km/h (2 Bft) W 0.98 h 822 W/m 14.7 C 22.1 C 17.2 km/h (3 Bft)
03.08.2010 15:00 22.2 C 61 % 1014.4 hPa 0.0 l/m 11.2 km/h (2 Bft) W-NW 0.65 h 611 W/m 14.2 C 22.2 C 17.4 km/h (3 Bft)
03.08.2010 16:00 22.8 C 57 % 1014.4 hPa 0.0 l/m 8.0 km/h (2 Bft) NW 0.85 h 609 W/m 14.0 C 22.8 C 13.0 km/h (3 Bft)
03.08.2010 17:00 23.0 C 54 % 1014.5 hPa 0.0 l/m 8.5 km/h (2 Bft) W 0.93 h 508 W/m 13.1 C 23.0 C 13.5 km/h (3 Bft)
03.08.2010 18:00 22.7 C 51 % 1014.4 hPa 0.0 l/m 8.9 km/h (2 Bft) W 0.95 h 323 W/m 12.1 C 22.7 C 13.8 km/h (3 Bft)
03.08.2010 19:00 22.1 C 54 % 1014.6 hPa 0.0 l/m 6.1 km/h (2 Bft) W 0.95 h 162 W/m 12.3 C 22.1 C 9.1 km/h (2 Bft)
03.08.2010 20:00 19.6 C 65 % 1015.1 hPa 0.0 l/m 1.1 km/h (1 Bft) W-NW 0.25 h 27 W/m 12.8 C 19.6 C 2.2 km/h (1 Bft)
03.08.2010 21:00 16.8 C 79 % 1015.4 hPa 0.0 l/m 3.8 km/h (1 Bft) O-SO 0.00 h 0 W/m 13.1 C 16.8 C 5.1 km/h (1 Bft)
03.08.2010 22:00 15.8 C 85 % 1015.8 hPa 0.0 l/m 2.5 km/h (1 Bft) O-SO 0.00 h 0 W/m 13.2 C 15.8 C 3.5 km/h (1 Bft)
03.08.2010 23:00 15.4 C 87 % 1015.7 hPa 0.0 l/m 0.7 km/h (0 Bft) O-SO 0.00 h 0 W/m 13.2 C 15.4 C 1.4 km/h (1 Bft)
04.08.2010 00:00 14.5 C 90 % 1015.4 hPa 0.0 l/m 0.6 km/h (0 Bft) O-SO 0.00 h 0 W/m 12.9 C 14.5 C 1.5 km/h (1 Bft)
04.08.2010 01:00 13.4 C 92 % 1015.3 hPa 0.0 l/m 0.9 km/h (0 Bft) O-SO 0.00 h 0 W/m 12.2 C 13.4 C 2.4 km/h (1 Bft)
04.08.2010 02:00 12.6 C 94 % 1015.0 hPa 0.0 l/m 2.0 km/h (1 Bft) O-SO 0.00 h 0 W/m 11.6 C 12.6 C 3.2 km/h (1 Bft)
04.08.2010 03:00 11.9 C 95 % 1014.6 hPa 0.0 l/m 0.3 km/h (0 Bft) O-SO 0.00 h 0 W/m 11.2 C 11.9 C 0.7 km/h (0 Bft)
04.08.2010 04:00 11.5 C 96 % 1014.2 hPa 0.0 l/m 0.9 km/h (0 Bft) O-SO 0.00 h 0 W/m 10.9 C 11.5 C 1.8 km/h (1 Bft)
04.08.2010 05:00 11.2 C 96 % 1014.1 hPa 0.0 l/m 0.9 km/h (0 Bft) O-SO 0.00 h 0 W/m 10.6 C 11.2 C 1.6 km/h (1 Bft)
04.08.2010 06:00 11.0 C 97 % 1014.2 hPa 0.0 l/m 0.5 km/h (0 Bft) O-SO 0.05 h 21 W/m 10.5 C 11.0 C 1.2 km/h (1 Bft)
04.08.2010 07:00 11.8 C 96 % 1014.2 hPa 0.0 l/m 0.5 km/h (0 Bft) O-SO 0.00 h 62 W/m 11.2 C 11.8 C 1.4 km/h (1 Bft)
04.08.2010 08:00 12.9 C 93 % 1014.1 hPa 0.0 l/m 0.9 km/h (0 Bft) W-SW 0.00 h 121 W/m 11.8 C 12.9 C 2.2 km/h (1 Bft)
04.08.2010 09:00 14.5 C 92 % 1013.9 hPa 0.0 l/m 0.4 km/h (0 Bft) O-SO 0.02 h 212 W/m 13.3 C 14.5 C 2.0 km/h (1 Bft)
04.08.2010 10:00 16.5 C 89 % 1013.5 hPa 0.0 l/m 0.7 km/h (0 Bft) O-SO 0.72 h 419 W/m 14.6 C 16.5 C 2.6 km/h (1 Bft)
04.08.2010 11:00 19.1 C 79 % 1012.8 hPa 0.0 l/m 1.3 km/h (1 Bft) S-SO 0.97 h 629 W/m 15.3 C 19.1 C 3.1 km/h (1 Bft)
04.08.2010 12:00 21.0 C 69 % 1011.8 hPa 0.0 l/m 1.6 km/h (1 Bft) S-SO 0.68 h 601 W/m 15.0 C 21.0 C 4.4 km/h (1 Bft)
04.08.2010 13:00 20.9 C 72 % 1011.2 hPa 0.0 l/m 1.3 km/h (1 Bft) W 0.40 h 458 W/m 15.6 C 20.9 C 3.5 km/h (1 Bft)
04.08.2010 14:00 21.0 C 70 % 1010.7 hPa 0.0 l/m 2.5 km/h (1 Bft) W 0.17 h 398 W/m 15.4 C 21.0 C 5.0 km/h (1 Bft)
04.08.2010 15:00 22.2 C 63 % 1010.3 hPa 0.0 l/m 4.6 km/h (1 Bft) W 0.55 h 511 W/m 14.6 C 22.2 C 7.7 km/h (2 Bft)
04.08.2010 16:00 23.6 C 55 % 1009.8 hPa 0.0 l/m 5.5 km/h (1 Bft) W 0.95 h 611 W/m 13.9 C 23.6 C 9.5 km/h (2 Bft)
04.08.2010 17:00 24.1 C 51 % 1009.2 hPa 0.0 l/m 7.0 km/h (2 Bft) W-NW 0.95 h 481 W/m 13.3 C 24.1 C 10.7 km/h (2 Bft)
04.08.2010 18:00 23.1 C 54 % 1008.5 hPa 0.0 l/m 4.0 km/h (1 Bft) W-NW 0.67 h 251 W/m 13.3 C 23.1 C 6.6 km/h (2 Bft)
04.08.2010 19:00 22.0 C 59 % 1008.2 hPa 0.0 l/m 3.0 km/h (1 Bft) W 0.22 h 87 W/m 13.5 C 22.0 C 5.3 km/h (1 Bft)
04.08.2010 20:00 20.4 C 66 % 1008.3 hPa 0.0 l/m 4.4 km/h (1 Bft) W 0.00 h 16 W/m 13.8 C 20.4 C 7.4 km/h (2 Bft)
04.08.2010 21:00 19.5 C 69 % 1008.2 hPa 0.0 l/m 3.2 km/h (1 Bft) O 0.00 h 0 W/m 13.7 C 19.5 C 5.3 km/h (1 Bft)
04.08.2010 22:00 18.0 C 78 % 1008.1 hPa 0.0 l/m 4.1 km/h (1 Bft) O-SO 0.00 h 0 W/m 14.1 C 18.0 C 5.5 km/h (1 Bft)
04.08.2010 23:00 17.2 C 83 % 1007.8 hPa 0.0 l/m 3.0 km/h (1 Bft) O 0.00 h 0 W/m 14.2 C 17.2 C 4.6 km/h (1 Bft)
05.08.2010 00:00 16.5 C 86 % 1007.3 hPa 0.0 l/m 1.6 km/h (1 Bft) O-SO 0.00 h 0 W/m 14.2 C 16.5 C 2.7 km/h (1 Bft)
05.08.2010 01:00 16.5 C 87 % 1006.9 hPa 0.0 l/m 0.9 km/h (0 Bft) O-SO 0.00 h 0 W/m 14.2 C 16.5 C 2.0 km/h (1 Bft)
05.08.2010 02:00 16.3 C 89 % 1006.5 hPa 0.0 l/m 0.6 km/h (0 Bft) O-SO 0.00 h 0 W/m 14.4 C 16.3 C 1.2 km/h (1 Bft)
05.08.2010 03:00 16.0 C 89 % 1006.2 hPa 0.0 l/m 3.0 km/h (1 Bft) O-SO 0.00 h 0 W/m 14.3 C 16.0 C 4.2 km/h (1 Bft)
05.08.2010 04:00 16.0 C 89 % 1005.9 hPa 0.0 l/m 0.5 km/h (0 Bft) SO 0.00 h 0 W/m 14.2 C 16.0 C 1.2 km/h (1 Bft)
05.08.2010 05:00 15.8 C 90 % 1005.7 hPa 0.2 l/m 0.4 km/h (0 Bft) W-SW 0.00 h 0 W/m 14.1 C 15.8 C 1.1 km/h (1 Bft)
05.08.2010 06:00 15.5 C 93 % 1005.4 hPa 0.2 l/m 0.2 km/h (0 Bft) S-SO 0.00 h 5 W/m 14.4 C 15.5 C 1.1 km/h (0 Bft)
05.08.2010 07:00 15.3 C 95 % 1006.2 hPa 1.2 l/m 1.6 km/h (1 Bft) S-SO 0.00 h 15 W/m 14.6 C 15.3 C 3.5 km/h (1 Bft)
05.08.2010 08:00 15.2 C 96 % 1007.0 hPa 2.2 l/m 0.9 km/h (0 Bft) W-NW 0.00 h 25 W/m 14.6 C 15.2 C 2.7 km/h (1 Bft)
05.08.2010 09:00 14.3 C 97 % 1007.4 hPa 2.4 l/m 3.8 km/h (1 Bft) W-NW 0.00 h 54 W/m 13.9 C 14.3 C 6.6 km/h (2 Bft)
05.08.2010 10:00 14.2 C 98 % 1007.9 hPa 1.2 l/m 1.7 km/h (1 Bft) W-SW 0.00 h 88 W/m 13.8 C 14.2 C 4.0 km/h (1 Bft)
05.08.2010 11:00 14.3 C 96 % 1008.4 hPa 0.0 l/m 1.3 km/h (1 Bft) W 0.00 h 118 W/m 13.7 C 14.3 C 3.0 km/h (1 Bft)
05.08.2010 12:00 14.8 C 96 % 1008.6 hPa 0.2 l/m 1.5 km/h (1 Bft) W-NW 0.00 h 157 W/m 14.2 C 14.8 C 3.5 km/h (1 Bft)
05.08.2010 13:00 15.4 C 96 % 1008.7 hPa 0.0 l/m 3.0 km/h (1 Bft) W 0.00 h 221 W/m 14.8 C 15.4 C 5.9 km/h (2 Bft)
05.08.2010 14:00 15.6 C 95 % 1008.8 hPa 0.0 l/m 3.1 km/h (1 Bft) W 0.00 h 207 W/m 14.9 C 15.6 C 6.0 km/h (2 Bft)
05.08.2010 15:00 15.9 C 94 % 1008.8 hPa 0.0 l/m 4.6 km/h (1 Bft) W 0.00 h 185 W/m 14.9 C 15.9 C 7.6 km/h (2 Bft)
05.08.2010 16:00 16.3 C 91 % 1009.2 hPa 0.0 l/m 4.5 km/h (1 Bft) W 0.00 h 170 W/m 14.9 C 16.3 C 7.6 km/h (2 Bft)
05.08.2010 17:00 16.4 C 89 % 1009.4 hPa 0.0 l/m 3.2 km/h (1 Bft) W 0.00 h 112 W/m 14.6 C 16.4 C 5.6 km/h (1 Bft)
05.08.2010 18:00 15.5 C 92 % 1009.8 hPa 0.2 l/m 3.9 km/h (1 Bft) W 0.00 h 72 W/m 14.2 C 15.5 C 6.9 km/h (2 Bft)
05.08.2010 19:00 15.0 C 90 % 1010.6 hPa 0.0 l/m 0.7 km/h (0 Bft) W-NW 0.00 h 29 W/m 13.4 C 15.0 C 2.5 km/h (1 Bft)
05.08.2010 20:00 14.6 C 94 % 1011.5 hPa 0.0 l/m 2.8 km/h (1 Bft) W-NW 0.00 h 14 W/m 13.6 C 14.6 C 6.1 km/h (2 Bft)
05.08.2010 21:00 14.7 C 94 % 1012.2 hPa 0.0 l/m 3.3 km/h (1 Bft) W-NW 0.00 h 0 W/m 13.7 C 14.7 C 6.6 km/h (2 Bft)
05.08.2010 22:00 14.7 C 92 % 1012.9 hPa 0.0 l/m 2.6 km/h (1 Bft) W 0.00 h 0 W/m 13.5 C 14.7 C 5.0 km/h (1 Bft)
05.08.2010 23:00 14.7 C 91 % 1013.3 hPa 0.0 l/m 1.7 km/h (1 Bft) SO 0.00 h 0 W/m 13.3 C 14.7 C 3.5 km/h (1 Bft)
06.08.2010 00:00 14.6 C 92 % 1013.4 hPa 0.0 l/m 2.7 km/h (1 Bft) O-SO 0.00 h 0 W/m 13.3 C 14.6 C 4.6 km/h (1 Bft)
06.08.2010 01:00 14.3 C 92 % 1013.7 hPa 0.0 l/m 1.7 km/h (1 Bft) W-NW 0.00 h 0 W/m 13.1 C 14.3 C 3.8 km/h (1 Bft)
06.08.2010 02:00 14.1 C 91 % 1013.8 hPa 0.0 l/m 0.8 km/h (0 Bft) W-NW 0.00 h 0 W/m 12.6 C 14.1 C 2.4 km/h (1 Bft)
06.08.2010 03:00 13.7 C 90 % 1014.0 hPa 0.0 l/m 2.7 km/h (1 Bft) W-NW 0.00 h 0 W/m 12.1 C 13.7 C 5.3 km/h (1 Bft)
06.08.2010 04:00 13.7 C 90 % 1014.1 hPa 0.0 l/m 0.7 km/h (0 Bft) W 0.00 h 0 W/m 12.1 C 13.7 C 1.8 km/h (1 Bft)
06.08.2010 05:00 13.1 C 93 % 1014.6 hPa 0.0 l/m 1.1 km/h (0 Bft) W 0.00 h 0 W/m 11.9 C 13.1 C 2.8 km/h (1 Bft)
06.08.2010 06:00 12.8 C 93 % 1015.2 hPa 0.0 l/m 0.2 km/h (0 Bft) SO 0.00 h 16 W/m 11.6 C 12.8 C 1.0 km/h (0 Bft)
06.08.2010 07:00 13.2 C 92 % 1015.9 hPa 0.0 l/m 0.4 km/h (0 Bft) SO 0.00 h 60 W/m 11.8 C 13.2 C 1.6 km/h (1 Bft)
06.08.2010 08:00 13.6 C 90 % 1016.4 hPa 0.0 l/m 0.6 km/h (0 Bft) NW 0.15 h 139 W/m 12.0 C 13.6 C 2.3 km/h (1 Bft)
06.08.2010 09:00 16.0 C 82 % 1016.4 hPa 0.0 l/m 2.5 km/h (1 Bft) W 1.00 h 451 W/m 13.0 C 16.0 C 4.7 km/h (1 Bft)
06.08.2010 10:00 17.9 C 76 % 1016.4 hPa 0.0 l/m 3.9 km/h (1 Bft) W 1.00 h 611 W/m 13.7 C 17.9 C 7.1 km/h (2 Bft)
06.08.2010 11:00 19.2 C 70 % 1016.4 hPa 0.0 l/m 3.2 km/h (1 Bft) W 0.90 h 747 W/m 13.6 C 19.2 C 6.2 km/h (2 Bft)
06.08.2010 12:00 19.1 C 69 % 1016.2 hPa 0.0 l/m 2.2 km/h (1 Bft) W 0.42 h 500 W/m 13.2 C 19.1 C 4.6 km/h (1 Bft)
06.08.2010 13:00 18.3 C 69 % 1016.4 hPa 0.0 l/m 1.4 km/h (1 Bft) O-SO 0.00 h 211 W/m 12.6 C 18.3 C 3.2 km/h (1 Bft)
06.08.2010 14:00 19.0 C 65 % 1016.3 hPa 0.0 l/m 2.5 km/h (1 Bft) O-SO 0.00 h 291 W/m 12.3 C 19.0 C 4.2 km/h (1 Bft)
06.08.2010 15:00 20.6 C 60 % 1016.1 hPa 0.0 l/m 2.1 km/h (1 Bft) O-SO 0.70 h 648 W/m 12.5 C 20.6 C 4.5 km/h (1 Bft)
06.08.2010 16:00 20.2 C 59 % 1016.2 hPa 0.0 l/m 4.1 km/h (1 Bft) N-NW 0.17 h 216 W/m 11.8 C 20.2 C 7.0 km/h (2 Bft)
06.08.2010 17:00 18.7 C 69 % 1016.6 hPa 0.0 l/m 4.3 km/h (1 Bft) O-SO 0.00 h 85 W/m 13.0 C 18.7 C 7.0 km/h (2 Bft)
06.08.2010 18:00 17.8 C 73 % 1017.0 hPa 0.0 l/m 1.8 km/h (1 Bft) SO 0.00 h 44 W/m 13.0 C 17.8 C 4.1 km/h (1 Bft)
06.08.2010 19:00 17.5 C 75 % 1017.2 hPa 0.0 l/m 0.5 km/h (0 Bft) O-SO 0.00 h 35 W/m 13.1 C 17.5 C 1.6 km/h (1 Bft)
06.08.2010 20:00 17.2 C 77 % 1017.6 hPa 0.0 l/m 0.2 km/h (0 Bft) NW 0.00 h 14 W/m 13.1 C 17.2 C 0.8 km/h (0 Bft)
06.08.2010 21:00 16.6 C 81 % 1018.0 hPa 0.0 l/m 0.0 km/h (0 Bft) N 0.00 h 0 W/m 13.3 C 16.6 C 0.3 km/h (0 Bft)
06.08.2010 22:00 16.0 C 87 % 1018.4 hPa 0.0 l/m 0.5 km/h (0 Bft) O 0.00 h 0 W/m 13.8 C 16.0 C 1.1 km/h (1 Bft)
06.08.2010 23:00 15.5 C 88 % 1018.5 hPa 0.0 l/m 0.2 km/h (0 Bft) O 0.00 h 0 W/m 13.6 C 15.5 C 0.5 km/h (0 Bft)
07.08.2010 00:00 14.7 C 91 % 1018.7 hPa 0.0 l/m 0.0 km/h (0 Bft) N 0.00 h 0 W/m 13.3 C 14.7 C 0.1 km/h (0 Bft)
07.08.2010 01:00 13.7 C 94 % 1018.8 hPa 0.0 l/m 0.0 km/h (0 Bft) N 0.00 h 0 W/m 12.9 C 13.7 C 0.2 km/h (0 Bft)
07.08.2010 02:00 13.0 C 95 % 1018.7 hPa 0.0 l/m 0.3 km/h (0 Bft) O 0.00 h 0 W/m 12.3 C 13.0 C 0.8 km/h (0 Bft)
07.08.2010 03:00 12.2 C 97 % 1018.5 hPa 0.0 l/m 0.3 km/h (0 Bft) O 0.00 h 0 W/m 11.6 C 12.2 C 0.7 km/h (0 Bft)
07.08.2010 04:00 11.6 C 97 % 1018.8 hPa 0.0 l/m 0.6 km/h (0 Bft) O 0.00 h 0 W/m 11.2 C 11.6 C 1.4 km/h (1 Bft)
07.08.2010 05:00 11.2 C 98 % 1019.0 hPa 0.0 l/m 1.8 km/h (1 Bft) O 0.00 h 0 W/m 10.8 C 11.2 C 3.0 km/h (1 Bft)
07.08.2010 06:00 10.9 C 98 % 1019.5 hPa 0.0 l/m 0.9 km/h (0 Bft) O 0.00 h 11 W/m 10.6 C 10.9 C 1.8 km/h (1 Bft)
07.08.2010 07:00 11.4 C 98 % 1019.5 hPa 0.0 l/m 0.5 km/h (0 Bft) O-SO 0.00 h 61 W/m 11.1 C 11.4 C 1.2 km/h (1 Bft)
07.08.2010 08:00 12.2 C 98 % 1019.5 hPa 0.0 l/m 0.3 km/h (0 Bft) O-SO 0.25 h 165 W/m 11.9 C 12.2 C 1.0 km/h (0 Bft)
07.08.2010 09:00 15.6 C 89 % 1019.4 hPa 0.0 l/m 0.5 km/h (0 Bft) S 1.00 h 435 W/m 13.8 C 15.6 C 1.9 km/h (1 Bft)
07.08.2010 10:00 18.1 C 80 % 1019.1 hPa 0.0 l/m 1.8 km/h (1 Bft) NW 1.00 h 591 W/m 14.7 C 18.1 C 3.7 km/h (1 Bft)
07.08.2010 11:00 20.0 C 71 % 1018.6 hPa 0.0 l/m 2.3 km/h (1 Bft) W-NW 1.00 h 717 W/m 14.6 C 20.0 C 4.5 km/h (1 Bft)
07.08.2010 12:00 21.7 C 58 % 1018.3 hPa 0.0 l/m 2.5 km/h (1 Bft) O-SO 1.00 h 799 W/m 12.9 C 21.7 C 4.7 km/h (1 Bft)
07.08.2010 13:00 22.6 C 54 % 1018.0 hPa 0.0 l/m 2.0 km/h (1 Bft) W 1.00 h 834 W/m 12.7 C 22.6 C 4.1 km/h (1 Bft)
07.08.2010 14:00 23.3 C 50 % 1017.7 hPa 0.0 l/m 2.6 km/h (1 Bft) W-NW 1.00 h 744 W/m 12.1 C 23.3 C 4.6 km/h (1 Bft)
07.08.2010 15:00 24.0 C 47 % 1017.5 hPa 0.0 l/m 2.8 km/h (1 Bft) N-NW 1.00 h 720 W/m 11.9 C 24.0 C 5.0 km/h (1 Bft)
07.08.2010 16:00 24.4 C 47 % 1017.3 hPa 0.0 l/m 2.2 km/h (1 Bft) NW 1.00 h 615 W/m 12.2 C 24.4 C 4.3 km/h (1 Bft)
07.08.2010 17:00 25.0 C 47 % 1016.9 hPa 0.0 l/m 4.0 km/h (1 Bft) W 1.00 h 471 W/m 13.0 C 25.0 C 6.4 km/h (2 Bft)
07.08.2010 18:00 24.7 C 47 % 1017.0 hPa 0.0 l/m 5.8 km/h (2 Bft) W 1.00 h 307 W/m 12.6 C 24.7 C 9.0 km/h (2 Bft)
07.08.2010 19:00 23.9 C 51 % 1017.1 hPa 0.0 l/m 3.8 km/h (1 Bft) W-NW 1.00 h 144 W/m 13.1 C 23.9 C 6.4 km/h (2 Bft)
07.08.2010 20:00 21.1 C 61 % 1017.4 hPa 0.0 l/m 2.1 km/h (1 Bft) W-NW 0.00 h 29 W/m 13.3 C 21.1 C 3.2 km/h (1 Bft)
07.08.2010 21:00 18.0 C 75 % 1017.6 hPa 0.0 l/m 5.1 km/h (1 Bft) O-SO 0.00 h 0 W/m 13.5 C 18.0 C 6.7 km/h (2 Bft)
07.08.2010 22:00 16.4 C 81 % 1017.9 hPa 0.0 l/m 2.2 km/h (1 Bft) O-SO 0.00 h 0 W/m 13.2 C 16.4 C 3.2 km/h (1 Bft)
07.08.2010 23:00 15.1 C 86 % 1017.9 hPa 0.0 l/m 1.7 km/h (1 Bft) O-SO 0.00 h 0 W/m 12.8 C 15.1 C 2.9 km/h (1 Bft)
08.08.2010 00:00 14.4 C 88 % 1017.8 hPa 0.0 l/m 1.2 km/h (1 Bft) O-SO 0.00 h 0 W/m 12.4 C 14.4 C 2.6 km/h (1 Bft)
08.08.2010 01:00 13.9 C 90 % 1017.7 hPa 0.0 l/m 0.4 km/h (0 Bft) O-SO 0.00 h 0 W/m 12.3 C 13.9 C 0.6 km/h (0 Bft)
08.08.2010 02:00 13.8 C 91 % 1017.4 hPa 0.0 l/m 0.0 km/h (0 Bft) N 0.00 h 0 W/m 12.3 C 13.8 C 0.0 km/h (0 Bft)
08.08.2010 03:00 13.6 C 92 % 1017.2 hPa 0.0 l/m 0.0 km/h (0 Bft) N 0.00 h 0 W/m 12.3 C 13.6 C 0.0 km/h (0 Bft)
08.08.2010 04:00 13.8 C 93 % 1016.8 hPa 0.0 l/m 0.0 km/h (0 Bft) N 0.00 h 0 W/m 12.6 C 13.8 C 0.0 km/h (0 Bft)
08.08.2010 05:00 13.5 C 94 % 1016.6 hPa 0.0 l/m 0.2 km/h (0 Bft) O-SO 0.00 h 0 W/m 12.6 C 13.5 C 0.3 km/h (0 Bft)
08.08.2010 06:00 13.5 C 95 % 1016.6 hPa 0.0 l/m 0.1 km/h (0 Bft) O-SO 0.00 h 13 W/m 12.6 C 13.5 C 0.2 km/h (0 Bft)
08.08.2010 07:00 13.8 C 94 % 1016.7 hPa 0.0 l/m 0.0 km/h (0 Bft) O-SO 0.00 h 57 W/m 12.9 C 13.8 C 0.1 km/h (0 Bft)
08.08.2010 08:00 14.6 C 94 % 1016.9 hPa 0.4 l/m 0.5 km/h (0 Bft) O-SO 0.03 h 95 W/m 13.7 C 14.6 C 1.3 km/h (1 Bft)
08.08.2010 09:00 16.7 C 92 % 1017.0 hPa 0.0 l/m 1.0 km/h (0 Bft) SO 0.55 h 342 W/m 15.4 C 16.7 C 2.2 km/h (1 Bft)
08.08.2010 10:00 17.7 C 87 % 1017.3 hPa 0.0 l/m 2.7 km/h (1 Bft) S-SO 0.03 h 162 W/m 15.6 C 17.7 C 5.4 km/h (1 Bft)
08.08.2010 11:00 17.9 C 87 % 1017.5 hPa 0.0 l/m 2.7 km/h (1 Bft) S 0.00 h 172 W/m 15.7 C 17.9 C 6.1 km/h (2 Bft)
08.08.2010 12:00 20.0 C 84 % 1017.3 hPa 0.2 l/m 2.8 km/h (1 Bft) S-SO 0.58 h 602 W/m 17.2 C 20.0 C 6.3 km/h (2 Bft)
08.08.2010 13:00 21.5 C 76 % 1016.8 hPa 0.0 l/m 2.7 km/h (1 Bft) S-SO 0.25 h 413 W/m 17.1 C 21.5 C 6.0 km/h (2 Bft)
08.08.2010 14:00 22.4 C 76 % 1016.4 hPa 0.0 l/m 3.8 km/h (1 Bft) S-SO 0.45 h 556 W/m 18.0 C 22.4 C 8.0 km/h (2 Bft)
08.08.2010 15:00 23.9 C 66 % 1015.9 hPa 0.0 l/m 10.2 km/h (2 Bft) W 0.92 h 721 W/m 17.0 C 23.9 C 16.4 km/h (3 Bft)
08.08.2010 16:00 23.7 C 60 % 1015.7 hPa 0.0 l/m 16.0 km/h (3 Bft) W 0.37 h 403 W/m 15.3 C 23.7 C 24.0 km/h (4 Bft)
08.08.2010 17:00 23.1 C 61 % 1016.3 hPa 0.0 l/m 13.4 km/h (3 Bft) W 0.58 h 386 W/m 15.1 C 23.1 C 20.7 km/h (4 Bft)
08.08.2010 18:00 22.6 C 61 % 1016.3 hPa 0.0 l/m 13.8 km/h (3 Bft) W 0.57 h 242 W/m 14.6 C 22.6 C 20.8 km/h (4 Bft)
08.08.2010 19:00 22.5 C 61 % 1016.4 hPa 0.0 l/m 9.6 km/h (2 Bft) W 0.83 h 181 W/m 14.5 C 22.5 C 14.7 km/h (3 Bft)
08.08.2010 20:00 21.6 C 62 % 1016.6 hPa 0.0 l/m 6.5 km/h (2 Bft) W-NW 0.68 h 51 W/m 13.9 C 21.6 C 9.9 km/h (2 Bft)
08.08.2010 21:00 19.6 C 71 % 1017.4 hPa 0.0 l/m 1.4 km/h (1 Bft) W-NW 0.00 h 0 W/m 14.1 C 19.6 C 2.7 km/h (1 Bft)
08.08.2010 22:00 18.1 C 79 % 1017.9 hPa 0.0 l/m 0.7 km/h (0 Bft) O-SO 0.00 h 0 W/m 14.3 C 18.1 C 1.5 km/h (1 Bft)
08.08.2010 23:00 16.9 C 86 % 1018.4 hPa 0.0 l/m 0.0 km/h (0 Bft) N 0.00 h 0 W/m 14.5 C 16.9 C 0.2 km/h (0 Bft)
Min-Datum _ 02.08.10 07.08.10 05.08.10 - 02.08.10 - - - 07.08.10 07.08.10 02.08.10
_ Min-Zeit 21:52 15:56 06:15 - 00:00 - - - 15:56 06:13 00:02
Minimum _ 0.0 C 40 % 1005.2 hPa - 0.0 km/h (0 Bft) - - - 9.4 C 10.6 C 0.0 km/h (0 Bft)
Max-Datum _ 07.08.10 02.08.10 07.08.10 05.08.10 08.08.10 - 02.08.10 03.08.10 02.08.10 07.08.10 08.08.10
_ Max-Zeit 17:36 07:21 06:15 09:00 16:32 - 09:37 13:01 11:08 17:35 16:19
Maximum _ 25.6 C 99 % 1019.6 hPa 2.4 l/m 25.0 km/h
W (4 Bft)
- 0.02 h 1111 W/m 20.4 C 25.6 C 38.2 km/h
W (5 Bft)
Durchschnitt _ 17.4 C 83 % 1014.5 hPa #16.2 l/m 2.6 km/h (1 Bft) W #37:07 h 282 W/m 14.2 C 17.4 C 4.6 km/h (1 Bft)
© Kaiko 2010